首页
METAR-TAF:

METAR-TAF

机场 :

蒙彼利埃, 法国

纬度: 43-35N, 经度: 003-58E, 海拔: 5米

当前天气观测

该预报发布于17分钟前的11:30 UTC
风速10节,风向西转西南
温度 22°C
湿度 83%
气压 1014 hPa
能见度10公里或以上
小雨

METAR: LFMT 201130Z AUTO 25010KT 9999 -RA FEW029/// SCT040/// BKN052/// ///TCU 22/19 Q1014 BECMG 18010KT NSC

时间: 13:47 (11:47 UTC)

预报

该预报发布于3小时和47分钟前的08:00 UTC
预报有效从20日的 09点(UTC)到 21日的 09点(UTC)
风速10节,风向
能见度10公里或以上
1500米以下无云,无积雨云
短暂存在
从 20日的 18点(UTC)到 20日的 20点(UTC)
风速20节,风向西南,有时为30节阵风
多云层高于6000英尺, 塔状积云.
小阵雨
短暂存在
从 20日的 20点(UTC)到 20日的 23点(UTC)
风速10节,风向北转西北
多云层高于8000英尺, 塔状积云.
阵雨

TAF: LFMT 200800Z 2009/2109 18010KT CAVOK TEMPO 2018/2020 22020G30KT -SHRA BKN060TCU TEMPO 2020/2023 34010KT SHRA BKN080TCU

超过4000个机场的气象观测和天气预报(METAR&TAF报告)。

可查询的气象台以黄色和红色小点在地图上表示。

将鼠标移到小点上方,可查看气象台名称。

然后点击查看天气观测和预报。

如需切换地图:点击带黑十字的绿色按钮放大地图;点击带横线的绿色按钮缩小地图;或者点击绿色箭头查看邻近地区的地图。


METAR-TAF: